sensor_id;sensor_type;location;lat;lon;timestamp;P1;durP1;ratioP1;P2;durP2;ratioP2
61681;SDS011;47577;43.610;25.010;2022-08-14T00:02:23;7.75;;;7.00;;
61681;SDS011;47577;43.610;25.010;2022-08-14T00:04:49;8.60;;;6.10;;
61681;SDS011;47577;43.610;25.010;2022-08-14T00:07:15;7.65;;;6.55;;
61681;SDS011;47577;43.610;25.010;2022-08-14T00:09:41;9.35;;;7.07;;
61681;SDS011;47577;43.610;25.010;2022-08-14T00:12:10;8.40;;;6.65;;
61681;SDS011;47577;43.610;25.010;2022-08-14T00:14:37;7.55;;;6.43;;
61681;SDS011;47577;43.610;25.010;2022-08-14T00:17:03;9.15;;;6.78;;
61681;SDS011;47577;43.610;25.010;2022-08-14T00:19:30;7.85;;;7.05;;
61681;SDS011;47577;43.610;25.010;2022-08-14T00:21:55;7.10;;;6.47;;
61681;SDS011;47577;43.610;25.010;2022-08-14T00:24:21;8.13;;;7.20;;
61681;SDS011;47577;43.610;25.010;2022-08-14T00:26:47;8.07;;;7.27;;
61681;SDS011;47577;43.610;25.010;2022-08-14T00:29:13;7.57;;;6.10;;
61681;SDS011;47577;43.610;25.010;2022-08-14T00:31:39;7.57;;;6.78;;
61681;SDS011;47577;43.610;25.010;2022-08-14T00:34:05;8.10;;;7.15;;
61681;SDS011;47577;43.610;25.010;2022-08-14T00:36:30;7.85;;;6.88;;
61681;SDS011;47577;43.610;25.010;2022-08-14T00:38:56;12.32;;;7.43;;
61681;SDS011;47577;43.610;25.010;2022-08-14T00:41:22;8.98;;;6.30;;
61681;SDS011;47577;43.610;25.010;2022-08-14T00:43:47;8.27;;;7.40;;
61681;SDS011;47577;43.610;25.010;2022-08-14T00:46:13;7.50;;;6.80;;
61681;SDS011;47577;43.610;25.010;2022-08-14T00:48:39;6.97;;;6.28;;
61681;SDS011;47577;43.610;25.010;2022-08-14T00:51:08;9.27;;;7.82;;
61681;SDS011;47577;43.610;25.010;2022-08-14T00:53:35;9.95;;;7.28;;
61681;SDS011;47577;43.610;25.010;2022-08-14T00:58:32;7.30;;;6.60;;
61681;SDS011;47577;43.610;25.010;2022-08-14T01:01:00;7.60;;;6.72;;
61681;SDS011;47577;43.610;25.010;2022-08-14T01:03:33;7.75;;;6.95;;
61681;SDS011;47577;43.610;25.010;2022-08-14T01:06:04;8.40;;;7.60;;
61681;SDS011;47577;43.610;25.010;2022-08-14T01:08:32;8.93;;;7.07;;
61681;SDS011;47577;43.610;25.010;2022-08-14T01:10:59;7.57;;;6.38;;
61681;SDS011;47577;43.610;25.010;2022-08-14T01:13:27;7.72;;;6.75;;
61681;SDS011;47577;43.610;25.010;2022-08-14T01:16:03;7.47;;;6.70;;
61681;SDS011;47577;43.610;25.010;2022-08-14T01:18:31;8.43;;;7.15;;
61681;SDS011;47577;43.610;25.010;2022-08-14T01:21:22;8.88;;;7.40;;
61681;SDS011;47577;43.610;25.010;2022-08-14T01:24:03;7.53;;;6.72;;
61681;SDS011;47577;43.610;25.010;2022-08-14T01:26:31;8.52;;;7.63;;
61681;SDS011;47577;43.610;25.010;2022-08-14T01:28:58;8.43;;;7.05;;
61681;SDS011;47577;43.610;25.010;2022-08-14T01:31:25;7.35;;;6.65;;
61681;SDS011;47577;43.610;25.010;2022-08-14T01:33:55;9.75;;;7.55;;
61681;SDS011;47577;43.610;25.010;2022-08-14T01:36:26;9.35;;;7.18;;
61681;SDS011;47577;43.610;25.010;2022-08-14T01:38:58;8.57;;;7.63;;
61681;SDS011;47577;43.610;25.010;2022-08-14T01:41:25;9.40;;;6.88;;
61681;SDS011;47577;43.610;25.010;2022-08-14T01:43:53;9.73;;;7.85;;
61681;SDS011;47577;43.610;25.010;2022-08-14T01:46:25;7.82;;;6.95;;
61681;SDS011;47577;43.610;25.010;2022-08-14T01:48:53;8.60;;;7.30;;
61681;SDS011;47577;43.610;25.010;2022-08-14T01:51:20;8.00;;;6.90;;
61681;SDS011;47577;43.610;25.010;2022-08-14T01:53:50;8.60;;;7.72;;
61681;SDS011;47577;43.610;25.010;2022-08-14T01:56:19;8.43;;;7.55;;
61681;SDS011;47577;43.610;25.010;2022-08-14T01:58:47;7.82;;;7.03;;
61681;SDS011;47577;43.610;25.010;2022-08-14T02:01:16;9.70;;;7.15;;
61681;SDS011;47577;43.610;25.010;2022-08-14T02:03:44;7.57;;;6.88;;
61681;SDS011;47577;43.610;25.010;2022-08-14T02:06:10;9.07;;;7.43;;
61681;SDS011;47577;43.610;25.010;2022-08-14T02:08:37;7.68;;;6.95;;
61681;SDS011;47577;43.610;25.010;2022-08-14T02:11:06;8.27;;;7.50;;
61681;SDS011;47577;43.610;25.010;2022-08-14T02:16:43;9.65;;;7.80;;
61681;SDS011;47577;43.610;25.010;2022-08-14T02:19:16;8.98;;;8.02;;
61681;SDS011;47577;43.610;25.010;2022-08-14T02:21:48;9.18;;;7.43;;
61681;SDS011;47577;43.610;25.010;2022-08-14T02:24:17;7.80;;;6.97;;
61681;SDS011;47577;43.610;25.010;2022-08-14T02:26:47;8.77;;;7.90;;
61681;SDS011;47577;43.610;25.010;2022-08-14T02:29:23;8.85;;;7.50;;
61681;SDS011;47577;43.610;25.010;2022-08-14T02:34:36;8.98;;;7.80;;
61681;SDS011;47577;43.610;25.010;2022-08-14T02:37:10;8.70;;;7.82;;
61681;SDS011;47577;43.610;25.010;2022-08-14T02:39:43;8.35;;;7.53;;
61681;SDS011;47577;43.610;25.010;2022-08-14T02:42:11;8.88;;;7.75;;
61681;SDS011;47577;43.610;25.010;2022-08-14T02:44:40;8.23;;;7.20;;
61681;SDS011;47577;43.610;25.010;2022-08-14T02:47:07;8.63;;;7.53;;
61681;SDS011;47577;43.610;25.010;2022-08-14T02:49:33;7.90;;;7.15;;
61681;SDS011;47577;43.610;25.010;2022-08-14T02:51:59;9.35;;;7.55;;
61681;SDS011;47577;43.610;25.010;2022-08-14T02:54:25;9.07;;;7.90;;
61681;SDS011;47577;43.610;25.010;2022-08-14T02:56:52;8.65;;;7.75;;
61681;SDS011;47577;43.610;25.010;2022-08-14T02:59:20;7.57;;;6.78;;
61681;SDS011;47577;43.610;25.010;2022-08-14T03:01:48;8.05;;;7.25;;
61681;SDS011;47577;43.610;25.010;2022-08-14T03:04:15;8.65;;;7.65;;
61681;SDS011;47577;43.610;25.010;2022-08-14T03:06:40;9.40;;;7.35;;
61681;SDS011;47577;43.610;25.010;2022-08-14T03:09:10;7.90;;;7.10;;
61681;SDS011;47577;43.610;25.010;2022-08-14T03:11:36;7.90;;;7.10;;
61681;SDS011;47577;43.610;25.010;2022-08-14T03:14:03;7.95;;;7.07;;
61681;SDS011;47577;43.610;25.010;2022-08-14T03:16:29;7.68;;;6.88;;
61681;SDS011;47577;43.610;25.010;2022-08-14T03:19:00;9.07;;;7.15;;
61681;SDS011;47577;43.610;25.010;2022-08-14T03:21:26;8.20;;;7.40;;
61681;SDS011;47577;43.610;25.010;2022-08-14T03:23:54;9.52;;;7.22;;
61681;SDS011;47577;43.610;25.010;2022-08-14T03:26:38;9.00;;;7.43;;
61681;SDS011;47577;43.610;25.010;2022-08-14T03:29:06;7.75;;;6.85;;
61681;SDS011;47577;43.610;25.010;2022-08-14T03:31:33;8.70;;;7.60;;
61681;SDS011;47577;43.610;25.010;2022-08-14T03:34:00;9.30;;;8.07;;
61681;SDS011;47577;43.610;25.010;2022-08-14T03:36:28;9.05;;;8.15;;
61681;SDS011;47577;43.610;25.010;2022-08-14T03:38:56;8.45;;;7.10;;
61681;SDS011;47577;43.610;25.010;2022-08-14T03:41:24;8.63;;;7.45;;
61681;SDS011;47577;43.610;25.010;2022-08-14T03:46:22;12.27;;;7.35;;
61681;SDS011;47577;43.610;25.010;2022-08-14T03:48:50;8.38;;;7.57;;
61681;SDS011;47577;43.610;25.010;2022-08-14T03:51:19;9.43;;;7.50;;
61681;SDS011;47577;43.610;25.010;2022-08-14T03:53:49;14.25;;;8.80;;
61681;SDS011;47577;43.610;25.010;2022-08-14T03:56:15;9.20;;;8.05;;
61681;SDS011;47577;43.610;25.010;2022-08-14T03:58:45;11.48;;;7.28;;
61681;SDS011;47577;43.610;25.010;2022-08-14T04:01:17;8.27;;;7.47;;
61681;SDS011;47577;43.610;25.010;2022-08-14T04:03:45;8.40;;;7.32;;
61681;SDS011;47577;43.610;25.010;2022-08-14T04:06:12;8.60;;;7.75;;
61681;SDS011;47577;43.610;25.010;2022-08-14T04:08:38;11.02;;;8.02;;
61681;SDS011;47577;43.610;25.010;2022-08-14T04:11:05;8.38;;;7.47;;
61681;SDS011;47577;43.610;25.010;2022-08-14T04:16:01;9.93;;;7.55;;
61681;SDS011;47577;43.610;25.010;2022-08-14T04:18:29;10.68;;;7.72;;
61681;SDS011;47577;43.610;25.010;2022-08-14T04:20:56;9.48;;;7.38;;
61681;SDS011;47577;43.610;25.010;2022-08-14T04:23:22;8.88;;;8.07;;
61681;SDS011;47577;43.610;25.010;2022-08-14T04:25:49;9.50;;;7.88;;
61681;SDS011;47577;43.610;25.010;2022-08-14T04:28:18;9.82;;;7.60;;
61681;SDS011;47577;43.610;25.010;2022-08-14T04:30:45;12.18;;;8.20;;
61681;SDS011;47577;43.610;25.010;2022-08-14T04:33:11;9.95;;;6.93;;
61681;SDS011;47577;43.610;25.010;2022-08-14T04:35:38;10.50;;;7.75;;
61681;SDS011;47577;43.610;25.010;2022-08-14T04:38:08;11.25;;;8.63;;
61681;SDS011;47577;43.610;25.010;2022-08-14T04:40:53;12.65;;;7.90;;
61681;SDS011;47577;43.610;25.010;2022-08-14T04:43:38;8.65;;;7.68;;
61681;SDS011;47577;43.610;25.010;2022-08-14T04:46:10;11.07;;;8.00;;
61681;SDS011;47577;43.610;25.010;2022-08-14T04:48:40;12.52;;;8.07;;
61681;SDS011;47577;43.610;25.010;2022-08-14T04:51:10;11.00;;;8.00;;
61681;SDS011;47577;43.610;25.010;2022-08-14T04:53:38;8.63;;;7.82;;
61681;SDS011;47577;43.610;25.010;2022-08-14T04:56:12;8.68;;;7.60;;
61681;SDS011;47577;43.610;25.010;2022-08-14T04:58:40;10.85;;;7.90;;
61681;SDS011;47577;43.610;25.010;2022-08-14T05:01:12;9.80;;;7.93;;
61681;SDS011;47577;43.610;25.010;2022-08-14T05:03:39;8.77;;;7.88;;
61681;SDS011;47577;43.610;25.010;2022-08-14T05:06:08;9.20;;;8.30;;
61681;SDS011;47577;43.610;25.010;2022-08-14T05:08:36;9.75;;;8.23;;
61681;SDS011;47577;43.610;25.010;2022-08-14T05:11:03;9.13;;;7.72;;
61681;SDS011;47577;43.610;25.010;2022-08-14T05:13:31;8.50;;;7.15;;
61681;SDS011;47577;43.610;25.010;2022-08-14T05:15:58;8.63;;;7.72;;
61681;SDS011;47577;43.610;25.010;2022-08-14T05:18:26;8.75;;;7.88;;
61681;SDS011;47577;43.610;25.010;2022-08-14T05:20:58;9.32;;;7.63;;
61681;SDS011;47577;43.610;25.010;2022-08-14T05:41:19;7.93;;;7.20;;
61681;SDS011;47577;43.610;25.010;2022-08-14T05:43:46;8.68;;;7.78;;
61681;SDS011;47577;43.610;25.010;2022-08-14T05:46:13;8.80;;;7.90;;
61681;SDS011;47577;43.610;25.010;2022-08-14T05:48:45;8.43;;;7.38;;
61681;SDS011;47577;43.610;25.010;2022-08-14T05:51:12;8.57;;;7.65;;
61681;SDS011;47577;43.610;25.010;2022-08-14T05:53:38;7.85;;;7.03;;
61681;SDS011;47577;43.610;25.010;2022-08-14T05:56:04;9.43;;;7.43;;
61681;SDS011;47577;43.610;25.010;2022-08-14T05:58:29;14.07;;;7.20;;
61681;SDS011;47577;43.610;25.010;2022-08-14T06:00:55;8.27;;;7.47;;
61681;SDS011;47577;43.610;25.010;2022-08-14T06:03:21;8.82;;;7.00;;
61681;SDS011;47577;43.610;25.010;2022-08-14T06:05:48;8.57;;;7.67;;
61681;SDS011;47577;43.610;25.010;2022-08-14T06:08:20;8.93;;;7.45;;
61681;SDS011;47577;43.610;25.010;2022-08-14T06:10:50;8.57;;;7.68;;
61681;SDS011;47577;43.610;25.010;2022-08-14T06:13:17;8.27;;;7.43;;
61681;SDS011;47577;43.610;25.010;2022-08-14T06:15:43;8.70;;;7.82;;
61681;SDS011;47577;43.610;25.010;2022-08-14T06:18:10;11.45;;;9.48;;
61681;SDS011;47577;43.610;25.010;2022-08-14T06:20:36;10.38;;;7.72;;
61681;SDS011;47577;43.610;25.010;2022-08-14T06:23:02;8.95;;;7.45;;
61681;SDS011;47577;43.610;25.010;2022-08-14T06:25:28;8.00;;;7.30;;
61681;SDS011;47577;43.610;25.010;2022-08-14T06:27:55;8.55;;;7.65;;
61681;SDS011;47577;43.610;25.010;2022-08-14T06:30:22;10.65;;;7.72;;
61681;SDS011;47577;43.610;25.010;2022-08-14T06:32:49;9.10;;;8.20;;
61681;SDS011;47577;43.610;25.010;2022-08-14T06:35:15;10.03;;;8.30;;
61681;SDS011;47577;43.610;25.010;2022-08-14T06:37:58;8.70;;;7.80;;
61681;SDS011;47577;43.610;25.010;2022-08-14T06:45:17;9.77;;;7.70;;
61681;SDS011;47577;43.610;25.010;2022-08-14T06:47:44;12.38;;;8.20;;
61681;SDS011;47577;43.610;25.010;2022-08-14T06:50:13;10.35;;;8.23;;
61681;SDS011;47577;43.610;25.010;2022-08-14T06:52:43;9.77;;;8.15;;
61681;SDS011;47577;43.610;25.010;2022-08-14T06:55:10;12.97;;;8.23;;
61681;SDS011;47577;43.610;25.010;2022-08-14T06:57:41;9.27;;;8.35;;
61681;SDS011;47577;43.610;25.010;2022-08-14T07:00:17;10.52;;;8.57;;
61681;SDS011;47577;43.610;25.010;2022-08-14T07:02:45;10.68;;;8.57;;
61681;SDS011;47577;43.610;25.010;2022-08-14T07:05:29;9.48;;;8.48;;
61681;SDS011;47577;43.610;25.010;2022-08-14T07:08:31;8.65;;;7.70;;
61681;SDS011;47577;43.610;25.010;2022-08-14T07:10:58;11.88;;;9.15;;
61681;SDS011;47577;43.610;25.010;2022-08-14T07:13:28;8.98;;;8.10;;
61681;SDS011;47577;43.610;25.010;2022-08-14T07:15:55;10.45;;;9.35;;
61681;SDS011;47577;43.610;25.010;2022-08-14T07:18:21;9.75;;;8.75;;
61681;SDS011;47577;43.610;25.010;2022-08-14T07:20:50;10.88;;;9.75;;
61681;SDS011;47577;43.610;25.010;2022-08-14T07:23:17;10.68;;;9.57;;
61681;SDS011;47577;43.610;25.010;2022-08-14T07:25:43;9.57;;;8.55;;
61681;SDS011;47577;43.610;25.010;2022-08-14T07:28:11;10.15;;;9.10;;
61681;SDS011;47577;43.610;25.010;2022-08-14T07:30:38;11.23;;;8.63;;
61681;SDS011;47577;43.610;25.010;2022-08-14T07:33:04;10.30;;;9.25;;
61681;SDS011;47577;43.610;25.010;2022-08-14T07:35:31;11.77;;;9.93;;
61681;SDS011;47577;43.610;25.010;2022-08-14T07:37:57;9.40;;;8.50;;
61681;SDS011;47577;43.610;25.010;2022-08-14T07:40:23;9.98;;;8.77;;
61681;SDS011;47577;43.610;25.010;2022-08-14T07:42:49;9.43;;;8.48;;
61681;SDS011;47577;43.610;25.010;2022-08-14T07:45:15;11.55;;;9.25;;
61681;SDS011;47577;43.610;25.010;2022-08-14T07:47:41;13.93;;;9.45;;
61681;SDS011;47577;43.610;25.010;2022-08-14T07:50:14;10.45;;;8.77;;
61681;SDS011;47577;43.610;25.010;2022-08-14T07:52:41;9.57;;;8.57;;
61681;SDS011;47577;43.610;25.010;2022-08-14T07:55:09;10.25;;;9.25;;
61681;SDS011;47577;43.610;25.010;2022-08-14T07:57:39;9.82;;;8.80;;
61681;SDS011;47577;43.610;25.010;2022-08-14T08:00:11;9.25;;;8.35;;
61681;SDS011;47577;43.610;25.010;2022-08-14T08:02:40;10.57;;;8.88;;
61681;SDS011;47577;43.610;25.010;2022-08-14T08:05:07;10.18;;;8.48;;
61681;SDS011;47577;43.610;25.010;2022-08-14T08:07:34;10.10;;;8.82;;
61681;SDS011;47577;43.610;25.010;2022-08-14T08:10:11;10.77;;;8.55;;
61681;SDS011;47577;43.610;25.010;2022-08-14T08:13:01;10.15;;;8.52;;
61681;SDS011;47577;43.610;25.010;2022-08-14T08:15:30;9.73;;;8.73;;
61681;SDS011;47577;43.610;25.010;2022-08-14T08:17:57;9.48;;;7.82;;
61681;SDS011;47577;43.610;25.010;2022-08-14T08:20:27;9.68;;;8.68;;
61681;SDS011;47577;43.610;25.010;2022-08-14T08:22:54;11.07;;;8.48;;
61681;SDS011;47577;43.610;25.010;2022-08-14T08:25:23;9.45;;;8.45;;
61681;SDS011;47577;43.610;25.010;2022-08-14T08:28:10;10.02;;;8.65;;
61681;SDS011;47577;43.610;25.010;2022-08-14T08:30:37;8.82;;;7.93;;
61681;SDS011;47577;43.610;25.010;2022-08-14T08:33:05;12.60;;;8.40;;
61681;SDS011;47577;43.610;25.010;2022-08-14T08:35:34;9.77;;;8.18;;
61681;SDS011;47577;43.610;25.010;2022-08-14T08:38:03;11.13;;;7.60;;
61681;SDS011;47577;43.610;25.010;2022-08-14T08:40:33;9.30;;;8.25;;
61681;SDS011;47577;43.610;25.010;2022-08-14T08:43:06;11.45;;;8.50;;
61681;SDS011;47577;43.610;25.010;2022-08-14T08:46:13;9.60;;;7.47;;
61681;SDS011;47577;43.610;25.010;2022-08-14T08:48:46;10.15;;;7.63;;
61681;SDS011;47577;43.610;25.010;2022-08-14T08:51:22;11.07;;;7.38;;
61681;SDS011;47577;43.610;25.010;2022-08-14T08:53:57;15.18;;;8.10;;
61681;SDS011;47577;43.610;25.010;2022-08-14T08:56:47;9.48;;;7.25;;
61681;SDS011;47577;43.610;25.010;2022-08-14T08:59:21;7.97;;;7.07;;
61681;SDS011;47577;43.610;25.010;2022-08-14T09:01:55;8.95;;;6.90;;
61681;SDS011;47577;43.610;25.010;2022-08-14T09:04:24;8.20;;;7.15;;
61681;SDS011;47577;43.610;25.010;2022-08-14T09:06:50;10.75;;;7.25;;
61681;SDS011;47577;43.610;25.010;2022-08-14T09:09:35;12.07;;;6.35;;
61681;SDS011;47577;43.610;25.010;2022-08-14T09:12:17;8.68;;;6.35;;
61681;SDS011;47577;43.610;25.010;2022-08-14T09:14:43;7.22;;;6.50;;
61681;SDS011;47577;43.610;25.010;2022-08-14T09:17:11;12.77;;;6.70;;
61681;SDS011;47577;43.610;25.010;2022-08-14T09:19:37;7.03;;;6.07;;
61681;SDS011;47577;43.610;25.010;2022-08-14T09:22:04;6.65;;;5.88;;
61681;SDS011;47577;43.610;25.010;2022-08-14T09:26:57;8.48;;;6.45;;
61681;SDS011;47577;43.610;25.010;2022-08-14T09:29:23;8.27;;;6.40;;
61681;SDS011;47577;43.610;25.010;2022-08-14T09:31:53;9.25;;;6.78;;
61681;SDS011;47577;43.610;25.010;2022-08-14T09:34:21;8.50;;;6.50;;
61681;SDS011;47577;43.610;25.010;2022-08-14T09:40:11;11.15;;;5.93;;
61681;SDS011;47577;43.610;25.010;2022-08-14T09:45:44;7.35;;;6.00;;
61681;SDS011;47577;43.610;25.010;2022-08-14T09:48:15;7.45;;;6.18;;
61681;SDS011;47577;43.610;25.010;2022-08-14T09:50:44;8.10;;;7.00;;
61681;SDS011;47577;43.610;25.010;2022-08-14T09:56:08;9.68;;;7.20;;
61681;SDS011;47577;43.610;25.010;2022-08-14T09:58:39;9.82;;;7.40;;
61681;SDS011;47577;43.610;25.010;2022-08-14T10:06:25;8.63;;;7.13;;
61681;SDS011;47577;43.610;25.010;2022-08-14T10:08:57;7.80;;;6.03;;
61681;SDS011;47577;43.610;25.010;2022-08-14T10:11:29;6.97;;;5.88;;
61681;SDS011;47577;43.610;25.010;2022-08-14T10:14:10;8.15;;;5.88;;
61681;SDS011;47577;43.610;25.010;2022-08-14T10:16:47;7.53;;;6.60;;
61681;SDS011;47577;43.610;25.010;2022-08-14T10:19:19;9.93;;;6.57;;
61681;SDS011;47577;43.610;25.010;2022-08-14T10:24:30;7.00;;;6.18;;
61681;SDS011;47577;43.610;25.010;2022-08-14T10:26:58;8.13;;;6.80;;
61681;SDS011;47577;43.610;25.010;2022-08-14T10:29:30;7.45;;;6.63;;
61681;SDS011;47577;43.610;25.010;2022-08-14T10:31:58;8.95;;;6.78;;
61681;SDS011;47577;43.610;25.010;2022-08-14T10:34:28;8.55;;;7.68;;
61681;SDS011;47577;43.610;25.010;2022-08-14T10:37:03;8.02;;;7.22;;
61681;SDS011;47577;43.610;25.010;2022-08-14T10:39:35;8.57;;;6.80;;
61681;SDS011;47577;43.610;25.010;2022-08-14T10:42:03;8.00;;;7.20;;
61681;SDS011;47577;43.610;25.010;2022-08-14T10:44:34;7.75;;;6.93;;
61681;SDS011;47577;43.610;25.010;2022-08-14T10:47:05;7.85;;;7.05;;
61681;SDS011;47577;43.610;25.010;2022-08-14T10:49:36;7.60;;;6.68;;
61681;SDS011;47577;43.610;25.010;2022-08-14T10:52:06;7.57;;;6.82;;
61681;SDS011;47577;43.610;25.010;2022-08-14T10:54:44;9.70;;;7.28;;
61681;SDS011;47577;43.610;25.010;2022-08-14T10:59:53;8.25;;;6.90;;
61681;SDS011;47577;43.610;25.010;2022-08-14T11:02:28;8.25;;;7.10;;
61681;SDS011;47577;43.610;25.010;2022-08-14T11:05:14;9.73;;;7.40;;
61681;SDS011;47577;43.610;25.010;2022-08-14T11:10:24;7.70;;;7.00;;
61681;SDS011;47577;43.610;25.010;2022-08-14T11:13:02;7.97;;;7.15;;
61681;SDS011;47577;43.610;25.010;2022-08-14T11:15:29;8.13;;;7.32;;
61681;SDS011;47577;43.610;25.010;2022-08-14T11:17:55;7.63;;;6.90;;
61681;SDS011;47577;43.610;25.010;2022-08-14T11:20:25;9.07;;;7.13;;
61681;SDS011;47577;43.610;25.010;2022-08-14T11:22:52;7.55;;;6.85;;
61681;SDS011;47577;43.610;25.010;2022-08-14T11:25:20;8.45;;;6.72;;
61681;SDS011;47577;43.610;25.010;2022-08-14T11:27:51;7.40;;;6.60;;
61681;SDS011;47577;43.610;25.010;2022-08-14T11:30:20;9.65;;;6.90;;
61681;SDS011;47577;43.610;25.010;2022-08-14T11:32:47;8.68;;;6.90;;
61681;SDS011;47577;43.610;25.010;2022-08-14T11:35:15;8.95;;;6.65;;
61681;SDS011;47577;43.610;25.010;2022-08-14T11:37:49;7.38;;;6.65;;
61681;SDS011;47577;43.610;25.010;2022-08-14T11:40:20;7.65;;;6.38;;
61681;SDS011;47577;43.610;25.010;2022-08-14T11:42:48;8.30;;;6.40;;
61681;SDS011;47577;43.610;25.010;2022-08-14T11:45:17;8.93;;;6.85;;
61681;SDS011;47577;43.610;25.010;2022-08-14T11:47:43;8.32;;;6.60;;
61681;SDS011;47577;43.610;25.010;2022-08-14T11:50:15;8.18;;;6.75;;
61681;SDS011;47577;43.610;25.010;2022-08-14T11:52:44;6.78;;;6.18;;
61681;SDS011;47577;43.610;25.010;2022-08-14T11:55:11;7.82;;;6.10;;
61681;SDS011;47577;43.610;25.010;2022-08-14T11:57:38;6.75;;;6.07;;
61681;SDS011;47577;43.610;25.010;2022-08-14T12:00:06;7.10;;;6.38;;
61681;SDS011;47577;43.610;25.010;2022-08-14T12:02:48;6.30;;;5.70;;
61681;SDS011;47577;43.610;25.010;2022-08-14T12:05:15;8.10;;;5.78;;
61681;SDS011;47577;43.610;25.010;2022-08-14T12:07:48;6.63;;;5.72;;
61681;SDS011;47577;43.610;25.010;2022-08-14T12:10:16;7.00;;;6.30;;
61681;SDS011;47577;43.610;25.010;2022-08-14T12:12:43;6.25;;;5.53;;
61681;SDS011;47577;43.610;25.010;2022-08-14T12:15:09;6.87;;;5.63;;
61681;SDS011;47577;43.610;25.010;2022-08-14T12:17:46;6.32;;;5.72;;
61681;SDS011;47577;43.610;25.010;2022-08-14T12:20:17;6.30;;;5.78;;
61681;SDS011;47577;43.610;25.010;2022-08-14T12:22:52;7.45;;;6.40;;
61681;SDS011;47577;43.610;25.010;2022-08-14T12:25:19;8.20;;;5.60;;
61681;SDS011;47577;43.610;25.010;2022-08-14T12:27:47;11.95;;;6.38;;
61681;SDS011;47577;43.610;25.010;2022-08-14T12:30:28;6.05;;;5.45;;
61681;SDS011;47577;43.610;25.010;2022-08-14T12:33:23;9.38;;;6.00;;
61681;SDS011;47577;43.610;25.010;2022-08-14T12:35:50;8.77;;;5.82;;
61681;SDS011;47577;43.610;25.010;2022-08-14T12:38:18;7.05;;;5.97;;
61681;SDS011;47577;43.610;25.010;2022-08-14T12:40:44;7.82;;;6.00;;
61681;SDS011;47577;43.610;25.010;2022-08-14T12:43:15;7.22;;;5.75;;
61681;SDS011;47577;43.610;25.010;2022-08-14T12:45:53;7.18;;;5.60;;
61681;SDS011;47577;43.610;25.010;2022-08-14T12:48:19;6.75;;;5.95;;
61681;SDS011;47577;43.610;25.010;2022-08-14T12:50:46;7.47;;;5.82;;
61681;SDS011;47577;43.610;25.010;2022-08-14T12:53:15;7.00;;;6.30;;
61681;SDS011;47577;43.610;25.010;2022-08-14T12:55:42;7.83;;;5.40;;
61681;SDS011;47577;43.610;25.010;2022-08-14T13:00:38;6.40;;;5.80;;
61681;SDS011;47577;43.610;25.010;2022-08-14T13:03:24;6.18;;;5.60;;
61681;SDS011;47577;43.610;25.010;2022-08-14T13:05:51;8.43;;;5.88;;
61681;SDS011;47577;43.610;25.010;2022-08-14T13:08:17;6.90;;;5.65;;
61681;SDS011;47577;43.610;25.010;2022-08-14T13:10:47;6.10;;;5.50;;
61681;SDS011;47577;43.610;25.010;2022-08-14T13:13:17;7.75;;;4.95;;
61681;SDS011;47577;43.610;25.010;2022-08-14T13:15:44;9.30;;;5.60;;
61681;SDS011;47577;43.610;25.010;2022-08-14T13:18:14;6.03;;;5.13;;
61681;SDS011;47577;43.610;25.010;2022-08-14T13:20:41;5.50;;;5.00;;
61681;SDS011;47577;43.610;25.010;2022-08-14T13:23:08;7.35;;;5.78;;
61681;SDS011;47577;43.610;25.010;2022-08-14T13:25:35;5.63;;;5.07;;
61681;SDS011;47577;43.610;25.010;2022-08-14T13:28:05;5.90;;;5.30;;
61681;SDS011;47577;43.610;25.010;2022-08-14T13:30:31;7.65;;;5.78;;
61681;SDS011;47577;43.610;25.010;2022-08-14T13:32:57;6.97;;;5.53;;
61681;SDS011;47577;43.610;25.010;2022-08-14T13:37:50;6.40;;;5.63;;
61681;SDS011;47577;43.610;25.010;2022-08-14T13:40:16;10.00;;;6.35;;
61681;SDS011;47577;43.610;25.010;2022-08-14T13:42:45;6.55;;;5.88;;
61681;SDS011;47577;43.610;25.010;2022-08-14T13:45:15;7.40;;;6.30;;
61681;SDS011;47577;43.610;25.010;2022-08-14T13:47:41;7.73;;;6.70;;
61681;SDS011;47577;43.610;25.010;2022-08-14T13:50:10;6.70;;;5.70;;
61681;SDS011;47577;43.610;25.010;2022-08-14T13:52:39;6.50;;;5.90;;
61681;SDS011;47577;43.610;25.010;2022-08-14T13:55:26;7.70;;;5.72;;
61681;SDS011;47577;43.610;25.010;2022-08-14T13:57:57;8.85;;;5.93;;
61681;SDS011;47577;43.610;25.010;2022-08-14T14:00:25;6.25;;;5.63;;
61681;SDS011;47577;43.610;25.010;2022-08-14T14:02:53;8.25;;;5.43;;
61681;SDS011;47577;43.610;25.010;2022-08-14T14:05:21;7.97;;;5.47;;
61681;SDS011;47577;43.610;25.010;2022-08-14T14:07:49;6.00;;;5.40;;
61681;SDS011;47577;43.610;25.010;2022-08-14T14:10:17;8.50;;;6.18;;
61681;SDS011;47577;43.610;25.010;2022-08-14T14:12:47;8.10;;;5.53;;
61681;SDS011;47577;43.610;25.010;2022-08-14T14:15:16;7.47;;;5.40;;
61681;SDS011;47577;43.610;25.010;2022-08-14T14:17:43;5.88;;;5.28;;
61681;SDS011;47577;43.610;25.010;2022-08-14T14:20:12;8.48;;;5.97;;
61681;SDS011;47577;43.610;25.010;2022-08-14T14:22:43;5.82;;;5.32;;
61681;SDS011;47577;43.610;25.010;2022-08-14T14:25:12;7.82;;;5.85;;
61681;SDS011;47577;43.610;25.010;2022-08-14T14:27:40;7.60;;;6.65;;
61681;SDS011;47577;43.610;25.010;2022-08-14T14:30:09;6.47;;;5.88;;
61681;SDS011;47577;43.610;25.010;2022-08-14T14:35:05;7.15;;;5.97;;
61681;SDS011;47577;43.610;25.010;2022-08-14T14:37:39;7.97;;;6.07;;
61681;SDS011;47577;43.610;25.010;2022-08-14T14:40:06;9.30;;;5.70;;
61681;SDS011;47577;43.610;25.010;2022-08-14T14:42:33;6.90;;;6.20;;
61681;SDS011;47577;43.610;25.010;2022-08-14T14:45:21;6.55;;;5.95;;
61681;SDS011;47577;43.610;25.010;2022-08-14T14:47:50;7.10;;;6.20;;
61681;SDS011;47577;43.610;25.010;2022-08-14T14:50:17;6.13;;;5.53;;
61681;SDS011;47577;43.610;25.010;2022-08-14T14:55:11;8.07;;;7.23;;
61681;SDS011;47577;43.610;25.010;2022-08-14T14:57:37;5.57;;;5.07;;
61681;SDS011;47577;43.610;25.010;2022-08-14T15:00:08;6.60;;;5.90;;
61681;SDS011;47577;43.610;25.010;2022-08-14T15:02:46;5.35;;;4.85;;
61681;SDS011;47577;43.610;25.010;2022-08-14T15:05:14;6.38;;;5.05;;
61681;SDS011;47577;43.610;25.010;2022-08-14T15:07:41;6.30;;;5.30;;
61681;SDS011;47577;43.610;25.010;2022-08-14T15:10:09;5.78;;;5.20;;
61681;SDS011;47577;43.610;25.010;2022-08-14T15:12:38;6.80;;;5.40;;
61681;SDS011;47577;43.610;25.010;2022-08-14T15:15:04;5.65;;;5.07;;
61681;SDS011;47577;43.610;25.010;2022-08-14T15:17:30;6.88;;;4.90;;
61681;SDS011;47577;43.610;25.010;2022-08-14T15:20:04;6.10;;;5.28;;
61681;SDS011;47577;43.610;25.010;2022-08-14T15:22:34;6.35;;;5.10;;
61681;SDS011;47577;43.610;25.010;2022-08-14T15:25:04;5.47;;;4.97;;
61681;SDS011;47577;43.610;25.010;2022-08-14T15:27:31;8.02;;;5.20;;
61681;SDS011;47577;43.610;25.010;2022-08-14T15:29:58;5.45;;;4.88;;
61681;SDS011;47577;43.610;25.010;2022-08-14T15:32:23;6.15;;;5.55;;
61681;SDS011;47577;43.610;25.010;2022-08-14T15:34:49;5.53;;;5.03;;
61681;SDS011;47577;43.610;25.010;2022-08-14T15:37:15;5.65;;;5.10;;
61681;SDS011;47577;43.610;25.010;2022-08-14T15:55:25;6.47;;;5.88;;
61681;SDS011;47577;43.610;25.010;2022-08-14T15:57:51;6.03;;;5.45;;
61681;SDS011;47577;43.610;25.010;2022-08-14T16:00:17;6.07;;;5.43;;
61681;SDS011;47577;43.610;25.010;2022-08-14T16:03:02;6.03;;;5.43;;
61681;SDS011;47577;43.610;25.010;2022-08-14T16:07:54;9.77;;;6.77;;
61681;SDS011;47577;43.610;25.010;2022-08-14T16:10:20;6.85;;;6.00;;
61681;SDS011;47577;43.610;25.010;2022-08-14T16:12:48;7.30;;;6.22;;
61681;SDS011;47577;43.610;25.010;2022-08-14T16:15:16;5.72;;;5.22;;
61681;SDS011;47577;43.610;25.010;2022-08-14T16:17:43;6.93;;;5.90;;